createdAt,value
2019-06-26T00:00:39.255Z,92.86
2019-06-26T00:01:39.017Z,92.19
2019-06-26T00:02:39.065Z,92.09
2019-06-26T00:03:38.871Z,91.80
2019-06-26T00:04:38.979Z,92.38
2019-06-26T00:05:38.730Z,92.62
2019-06-26T00:06:38.789Z,92.19
2019-06-26T00:07:38.583Z,92.91
2019-06-26T00:08:38.698Z,93.01
2019-06-26T00:09:38.436Z,91.08
2019-06-26T00:10:38.521Z,90.12
2019-06-26T00:11:38.292Z,89.26
2019-06-26T00:12:38.417Z,88.87
2019-06-26T00:13:38.146Z,89.93
2019-06-26T00:14:39.046Z,92.72
2019-06-26T00:15:38.001Z,95.31
2019-06-26T00:16:38.139Z,98.00
2019-06-26T00:17:37.857Z,99.99
2019-06-26T00:18:37.946Z,99.99
2019-06-26T00:19:37.753Z,99.99
2019-06-26T00:20:37.858Z,99.99
2019-06-26T00:21:37.569Z,99.99
2019-06-26T00:22:37.670Z,99.99
2019-06-26T00:23:37.427Z,99.99
2019-06-26T00:24:37.478Z,99.99
2019-06-26T00:25:37.281Z,99.99
2019-06-26T00:26:37.388Z,95.70
2019-06-26T00:27:37.133Z,93.68
2019-06-26T00:28:37.197Z,93.58
2019-06-26T00:29:36.988Z,92.91
2019-06-26T00:30:37.108Z,92.81
2019-06-26T00:31:36.842Z,96.27
2019-06-26T00:32:38.967Z,99.63
2019-06-26T00:33:36.691Z,99.99
2019-06-26T00:34:36.829Z,99.99
2019-06-26T00:35:36.550Z,99.99
2019-06-26T00:36:36.640Z,99.99
2019-06-26T00:37:36.410Z,99.99
2019-06-26T00:38:40.087Z,99.99
2019-06-26T00:39:36.259Z,97.33
2019-06-26T00:40:36.358Z,94.49
2019-06-26T00:41:36.122Z,92.57
2019-06-26T00:42:43.028Z,93.54
2019-06-26T00:43:42.378Z,93.92
2019-06-26T00:44:43.043Z,95.75
2019-06-26T00:45:35.825Z,96.42
2019-06-26T00:46:35.895Z,96.61
2019-06-26T00:47:35.674Z,95.55
2019-06-26T00:48:37.745Z,96.22
2019-06-26T00:49:35.529Z,96.99
2019-06-26T00:50:35.608Z,95.84
2019-06-26T00:51:35.379Z,94.21
2019-06-26T00:52:35.514Z,92.19
2019-06-26T00:53:35.240Z,92.29
2019-06-26T00:54:35.327Z,92.48
2019-06-26T00:55:35.091Z,91.90
2019-06-26T00:56:35.021Z,90.75
2019-06-26T00:57:35.157Z,91.28
2019-06-26T00:58:34.873Z,91.61
2019-06-26T00:59:34.954Z,91.90
2019-06-26T01:00:34.724Z,92.19
2019-06-26T01:01:34.862Z,92.38
2019-06-26T01:02:34.589Z,92.91
2019-06-26T01:03:34.692Z,92.81
2019-06-26T01:04:34.434Z,92.05
2019-06-26T01:05:34.585Z,90.89
2019-06-26T01:06:34.291Z,90.60
2019-06-26T01:07:34.394Z,88.20
2019-06-26T01:08:34.140Z,88.10
2019-06-26T01:09:34.203Z,90.89
2019-06-26T01:10:33.998Z,91.56
2019-06-26T01:11:34.113Z,93.49
2019-06-26T01:12:33.855Z,95.60
2019-06-26T01:13:33.923Z,97.81
2019-06-26T01:14:33.707Z,99.99
2019-06-26T01:15:33.837Z,99.99
2019-06-26T01:16:33.560Z,99.99
2019-06-26T01:17:33.648Z,99.99
2019-06-26T01:18:33.410Z,99.99
2019-06-26T01:19:33.554Z,99.99
2019-06-26T01:20:33.378Z,99.99
2019-06-26T01:21:33.371Z,99.99
2019-06-26T01:22:33.122Z,99.99
2019-06-26T01:23:33.173Z,99.99
2019-06-26T01:24:33.050Z,99.99
2019-06-26T01:25:33.086Z,99.99
2019-06-26T01:26:32.827Z,99.99
2019-06-26T01:27:32.895Z,99.99
2019-06-26T01:28:32.682Z,99.99
2019-06-26T01:29:32.846Z,99.99
2019-06-26T01:30:32.536Z,99.99
2019-06-26T01:31:32.461Z,99.99
2019-06-26T01:32:32.415Z,99.99
2019-06-26T01:33:32.315Z,99.99
2019-06-26T01:34:32.335Z,99.99
2019-06-26T01:35:32.174Z,99.99
2019-06-26T01:36:32.140Z,99.99
2019-06-26T01:37:32.023Z,99.99
2019-06-26T01:38:32.050Z,99.30
2019-06-26T01:39:31.877Z,96.61
2019-06-26T01:40:31.856Z,94.98
2019-06-26T01:41:31.738Z,94.01
2019-06-26T01:42:31.768Z,94.31
2019-06-26T01:43:31.584Z,95.75
2019-06-26T01:44:31.580Z,96.80
2019-06-26T01:45:31.439Z,95.65
2019-06-26T01:46:31.401Z,96.03
2019-06-26T01:47:31.292Z,94.40
2019-06-26T01:48:31.298Z,94.78
2019-06-26T01:49:31.143Z,95.17
2019-06-26T01:50:31.107Z,93.39
2019-06-26T01:51:30.994Z,92.67
2019-06-26T01:52:31.050Z,93.58
2019-06-26T01:53:30.850Z,95.98
2019-06-26T01:54:30.829Z,97.91
2019-06-26T01:55:30.710Z,97.52
2019-06-26T01:56:30.743Z,94.73
2019-06-26T01:57:30.559Z,95.07
2019-06-26T01:58:30.554Z,93.39
2019-06-26T01:59:30.413Z,93.77
2019-06-26T02:00:30.460Z,92.91
2019-06-26T02:01:30.265Z,95.75
2019-06-26T02:02:30.270Z,98.34
2019-06-26T02:03:30.121Z,99.99
2019-06-26T02:04:30.079Z,99.99
2019-06-26T02:05:29.974Z,99.99
2019-06-26T02:06:29.989Z,99.99
2019-06-26T02:07:29.826Z,99.99
2019-06-26T02:08:29.794Z,99.99
2019-06-26T02:09:29.689Z,99.99
2019-06-26T02:10:29.714Z,99.99
2019-06-26T02:11:29.531Z,99.99
2019-06-26T02:12:29.522Z,99.99
2019-06-26T02:13:29.386Z,99.99
2019-06-26T02:14:31.382Z,99.99
2019-06-26T02:15:29.235Z,99.99
2019-06-26T02:16:29.237Z,99.99
2019-06-26T02:17:29.089Z,99.99
2019-06-26T02:18:29.050Z,99.44
2019-06-26T02:19:28.945Z,98.58
2019-06-26T02:20:28.961Z,99.99
2019-06-26T02:21:28.799Z,99.99
2019-06-26T02:22:28.768Z,99.99
2019-06-26T02:23:28.653Z,95.70
2019-06-26T02:24:28.681Z,94.07
2019-06-26T02:25:28.512Z,93.01
2019-06-26T02:26:28.488Z,92.91
2019-06-26T02:27:28.356Z,91.76
2019-06-26T02:28:28.404Z,91.96
2019-06-26T02:29:28.212Z,95.31
2019-06-26T02:30:28.206Z,96.18
2019-06-26T02:31:28.061Z,95.50
2019-06-26T02:32:28.021Z,95.31
2019-06-26T02:33:27.926Z,94.07
2019-06-26T02:34:27.933Z,92.82
2019-06-26T02:35:27.775Z,92.05
2019-06-26T02:36:27.736Z,91.38
2019-06-26T02:37:27.627Z,91.86
2019-06-26T02:38:27.653Z,92.33
2019-06-26T02:39:27.481Z,93.87
2019-06-26T02:40:27.461Z,95.50
2019-06-26T02:41:27.331Z,97.33
2019-06-26T02:42:27.398Z,97.81
2019-06-26T02:43:27.185Z,96.75
2019-06-26T02:44:27.204Z,98.43
2019-06-26T02:45:27.041Z,99.99
2019-06-26T02:46:26.989Z,99.99
2019-06-26T02:47:26.885Z,99.99
2019-06-26T02:48:26.900Z,99.99
2019-06-26T02:49:26.741Z,99.99
2019-06-26T02:50:26.713Z,99.99
2019-06-26T02:51:26.599Z,99.99
2019-06-26T02:52:26.651Z,99.99
2019-06-26T02:53:26.447Z,99.39
2019-06-26T02:54:26.434Z,98.91
2019-06-26T02:55:26.301Z,99.99
2019-06-26T02:56:26.344Z,99.99
2019-06-26T02:57:26.154Z,99.99
2019-06-26T02:58:26.150Z,99.99
2019-06-26T02:59:26.004Z,99.99
2019-06-26T03:00:25.959Z,99.99
2019-06-26T03:01:25.860Z,99.99
2019-06-26T03:02:25.882Z,99.99
2019-06-26T03:03:25.719Z,99.99
2019-06-26T03:04:25.680Z,99.99
2019-06-26T03:05:25.570Z,99.99
2019-06-26T03:06:25.590Z,99.99
2019-06-26T03:07:25.412Z,98.77
2019-06-26T03:08:25.400Z,98.00
2019-06-26T03:09:25.318Z,98.67
2019-06-26T03:10:25.322Z,98.96
2019-06-26T03:11:25.119Z,99.99
2019-06-26T03:12:25.120Z,99.99
2019-06-26T03:13:24.971Z,99.99
2019-06-26T03:14:24.934Z,99.99
2019-06-26T03:15:24.825Z,99.99
2019-06-26T03:16:24.843Z,99.99
2019-06-26T03:17:24.675Z,99.39
2019-06-26T03:18:24.656Z,99.99
2019-06-26T03:19:24.528Z,99.99
2019-06-26T03:20:24.566Z,99.99
2019-06-26T03:21:24.379Z,99.99
2019-06-26T03:22:24.369Z,99.99
2019-06-26T03:23:24.231Z,99.99
2019-06-26T03:24:24.181Z,99.99
2019-06-26T03:25:24.083Z,99.99
2019-06-26T03:26:24.090Z,99.99
2019-06-26T03:27:23.934Z,99.99
2019-06-26T03:28:23.902Z,99.99
2019-06-26T03:29:23.789Z,99.99
2019-06-26T03:30:23.814Z,99.99
2019-06-26T03:31:23.642Z,99.99
2019-06-26T03:32:23.629Z,99.99
2019-06-26T03:33:23.495Z,99.99
2019-06-26T03:34:23.530Z,99.99
2019-06-26T03:35:23.343Z,99.99
2019-06-26T03:36:23.340Z,99.99
2019-06-26T03:37:23.201Z,99.99
2019-06-26T03:38:23.150Z,99.99
2019-06-26T03:39:23.050Z,99.99
2019-06-26T03:40:23.061Z,99.99
2019-06-26T03:41:22.900Z,99.99
2019-06-26T03:42:22.870Z,99.99
2019-06-26T03:43:22.750Z,99.99
2019-06-26T03:44:22.786Z,99.99
2019-06-26T03:45:26.307Z,99.99
2019-06-26T03:46:22.591Z,99.99
2019-06-26T03:47:22.452Z,99.99
2019-06-26T03:48:22.503Z,99.99
2019-06-26T03:49:22.309Z,99.99
2019-06-26T03:50:22.312Z,99.99
2019-06-26T03:51:22.163Z,99.99
2019-06-26T03:52:22.119Z,99.99
2019-06-26T03:53:22.021Z,99.99
2019-06-26T03:54:22.035Z,99.99
2019-06-26T03:55:21.865Z,99.99
2019-06-26T03:56:21.842Z,99.99
2019-06-26T03:57:21.717Z,99.99
2019-06-26T03:58:21.796Z,99.99
2019-06-26T03:59:21.567Z,99.99
2019-06-26T04:00:21.580Z,99.99
2019-06-26T04:01:21.429Z,99.99
2019-06-26T04:02:21.372Z,99.99
2019-06-26T04:03:21.277Z,99.99
2019-06-26T04:04:21.284Z,99.99
2019-06-26T04:05:21.174Z,99.99
2019-06-26T04:06:21.095Z,99.99
2019-06-26T04:07:20.976Z,99.99
2019-06-26T04:08:21.003Z,99.99
2019-06-26T04:09:20.829Z,99.99
2019-06-26T04:10:20.813Z,99.99
2019-06-26T04:11:20.691Z,99.99
2019-06-26T04:12:20.724Z,99.99
2019-06-26T04:13:20.683Z,99.99
2019-06-26T04:14:20.532Z,99.99
2019-06-26T04:15:20.384Z,99.99
2019-06-26T04:16:20.344Z,99.99
2019-06-26T04:17:20.236Z,99.99
2019-06-26T04:18:20.254Z,99.99
2019-06-26T04:19:20.091Z,99.99
2019-06-26T04:20:20.061Z,99.99
2019-06-26T04:21:19.942Z,99.99
2019-06-26T04:22:19.972Z,99.99
2019-06-26T04:23:19.794Z,99.99
2019-06-26T04:24:19.783Z,99.99
2019-06-26T04:25:19.648Z,99.99
2019-06-26T04:26:19.694Z,99.99
2019-06-26T04:27:19.497Z,99.99
2019-06-26T04:28:19.505Z,99.99
2019-06-26T04:29:19.352Z,99.99
2019-06-26T04:30:19.338Z,99.99
2019-06-26T04:31:19.202Z,99.99
2019-06-26T04:32:19.232Z,99.99
2019-06-26T04:33:19.053Z,99.99
2019-06-26T04:34:19.032Z,99.99
2019-06-26T04:35:18.908Z,99.99
2019-06-26T04:36:18.944Z,99.99
2019-06-26T04:37:18.765Z,99.99
2019-06-26T04:38:18.751Z,99.99
2019-06-26T04:39:18.614Z,99.99
2019-06-26T04:40:20.420Z,99.99
2019-06-26T04:41:18.469Z,99.99
2019-06-26T04:42:18.477Z,99.99
2019-06-26T04:43:18.316Z,99.99
2019-06-26T04:44:18.286Z,99.99
2019-06-26T04:45:18.371Z,99.99
2019-06-26T04:46:18.192Z,99.99
2019-06-26T04:47:18.029Z,99.99
2019-06-26T04:48:18.007Z,99.99
2019-06-26T04:49:17.883Z,99.99
2019-06-26T04:50:17.914Z,99.99
2019-06-26T04:51:17.729Z,99.99
2019-06-26T04:52:17.724Z,99.99
2019-06-26T04:53:17.578Z,99.99
2019-06-26T04:54:17.533Z,99.99
2019-06-26T04:55:17.440Z,99.99
2019-06-26T04:56:17.445Z,99.99
2019-06-26T04:57:17.283Z,99.99
2019-06-26T04:58:17.262Z,99.99
2019-06-26T04:59:17.131Z,99.99
2019-06-26T05:00:17.188Z,99.99
2019-06-26T05:01:16.991Z,99.99
2019-06-26T05:02:16.973Z,99.99
2019-06-26T05:03:16.844Z,99.99
2019-06-26T05:04:16.881Z,99.99
2019-06-26T05:05:16.696Z,99.99
2019-06-26T05:06:16.695Z,99.99
2019-06-26T05:07:16.554Z,99.99
2019-06-26T05:08:16.505Z,99.99
2019-06-26T05:09:16.516Z,99.99
2019-06-26T05:10:16.427Z,99.99
2019-06-26T05:11:16.254Z,99.99
2019-06-26T05:12:16.227Z,99.99
2019-06-26T05:13:16.110Z,99.99
2019-06-26T05:14:16.136Z,99.99
2019-06-26T05:15:15.964Z,99.99
2019-06-26T05:16:20.108Z,99.99
2019-06-26T05:17:15.816Z,99.99
2019-06-26T05:18:15.853Z,99.99
2019-06-26T05:19:15.669Z,99.99
2019-06-26T05:20:15.667Z,99.99
2019-06-26T05:21:15.541Z,99.99
2019-06-26T05:22:15.474Z,99.99
2019-06-26T05:23:15.378Z,99.99
2019-06-26T05:24:15.461Z,99.99
2019-06-26T05:25:15.232Z,99.99
2019-06-26T05:26:15.199Z,99.99
2019-06-26T05:27:15.086Z,99.99
2019-06-26T05:28:15.123Z,99.99
2019-06-26T05:29:14.938Z,99.99
2019-06-26T05:30:14.917Z,99.99
2019-06-26T05:31:14.792Z,99.99
2019-06-26T05:32:14.826Z,99.99
2019-06-26T05:33:14.795Z,99.99
2019-06-26T05:34:14.593Z,99.99
2019-06-26T05:35:15.368Z,99.99
2019-06-26T05:36:14.429Z,99.99
2019-06-26T05:37:14.529Z,99.99
2019-06-26T05:38:14.284Z,99.99
2019-06-26T05:39:14.221Z,99.99
2019-06-26T05:40:14.138Z,99.99
2019-06-26T05:41:14.070Z,99.99
2019-06-26T05:42:13.994Z,99.99
2019-06-26T05:43:13.920Z,99.99
2019-06-26T05:44:13.846Z,99.99
2019-06-26T05:45:13.891Z,99.99
2019-06-26T05:46:29.768Z,99.99
2019-06-26T05:47:13.626Z,99.99
2019-06-26T05:48:13.708Z,99.99
2019-06-26T05:49:13.483Z,99.99
2019-06-26T05:50:13.517Z,99.99
2019-06-26T05:51:13.341Z,99.99
2019-06-26T05:52:16.500Z,99.99
2019-06-26T05:53:13.335Z,99.99
2019-06-26T05:54:13.122Z,99.99
2019-06-26T05:55:13.051Z,99.99
2019-06-26T05:56:12.976Z,99.99
2019-06-26T05:57:12.909Z,99.99
2019-06-26T05:58:12.831Z,99.99
2019-06-26T05:59:12.882Z,99.99
2019-06-26T06:00:12.703Z,99.99
2019-06-26T06:01:12.616Z,99.99
2019-06-26T06:02:12.550Z,99.99
2019-06-26T06:03:12.587Z,99.99
2019-06-26T06:04:12.402Z,99.99
2019-06-26T06:05:12.325Z,99.99
2019-06-26T06:06:12.256Z,99.99
2019-06-26T06:07:12.304Z,99.99
2019-06-26T06:08:12.119Z,99.99
2019-06-26T06:09:12.040Z,99.99
2019-06-26T06:10:12.019Z,99.99
2019-06-26T06:11:11.896Z,99.99
2019-06-26T06:12:11.930Z,99.99
2019-06-26T06:13:11.753Z,99.99
2019-06-26T06:14:11.739Z,99.99
2019-06-26T06:15:11.609Z,99.99
2019-06-26T06:16:11.651Z,99.99
2019-06-26T06:17:11.470Z,99.99
2019-06-26T06:18:11.592Z,99.99
2019-06-26T06:19:11.323Z,99.99
2019-06-26T06:20:11.374Z,99.99
2019-06-26T06:21:11.184Z,99.99
2019-06-26T06:22:11.180Z,99.99
2019-06-26T06:23:11.054Z,99.99
2019-06-26T06:24:10.988Z,99.99
2019-06-26T06:25:10.911Z,99.99
2019-06-26T06:26:10.825Z,99.99
2019-06-26T06:27:10.808Z,99.99
2019-06-26T06:28:10.679Z,99.99
2019-06-26T06:29:10.721Z,99.99
2019-06-26T06:30:10.552Z,99.21
2019-06-26T06:31:10.468Z,99.99
2019-06-26T06:32:10.453Z,99.31
2019-06-26T06:33:10.332Z,99.02
2019-06-26T06:34:10.261Z,98.05
2019-06-26T06:35:10.183Z,97.23
2019-06-26T06:36:10.114Z,96.17
2019-06-26T06:37:10.041Z,95.78
2019-06-26T06:38:09.977Z,96.07
2019-06-26T06:39:09.900Z,97.23
2019-06-26T06:40:09.833Z,96.26
2019-06-26T06:41:09.897Z,95.83
2019-06-26T06:42:09.697Z,94.28
2019-06-26T06:43:09.612Z,95.05
2019-06-26T06:44:09.592Z,93.70
2019-06-26T06:45:09.477Z,93.12
2019-06-26T06:46:09.408Z,93.70
2019-06-26T06:47:09.333Z,93.45
2019-06-26T06:48:09.312Z,92.15
2019-06-26T06:49:09.197Z,91.32
2019-06-26T06:50:09.221Z,92.00
2019-06-26T06:51:09.057Z,93.26
2019-06-26T06:52:09.031Z,94.62
2019-06-26T06:53:08.914Z,92.05
2019-06-26T06:54:08.943Z,91.17
2019-06-26T06:55:08.778Z,89.72
2019-06-26T06:56:08.851Z,90.25
2019-06-26T06:57:08.635Z,91.56
2019-06-26T06:58:09.430Z,89.57
2019-06-26T06:59:08.496Z,88.21
2019-06-26T07:00:08.472Z,88.02
2019-06-26T07:01:08.551Z,87.73
2019-06-26T07:02:08.282Z,87.05
2019-06-26T07:03:08.293Z,86.61
2019-06-26T07:04:08.149Z,84.86
2019-06-26T07:05:08.094Z,84.67
2019-06-26T07:06:08.007Z,85.44
2019-06-26T07:07:08.010Z,85.97
2019-06-26T07:08:07.921Z,85.29
2019-06-26T07:09:07.920Z,84.81
2019-06-26T07:10:07.728Z,84.22
2019-06-26T07:11:07.729Z,83.06
2019-06-26T07:12:07.587Z,83.29
2019-06-26T07:13:07.640Z,83.39
2019-06-26T07:14:07.454Z,82.81
2019-06-26T07:15:07.451Z,83.78
2019-06-26T07:16:07.310Z,84.27
2019-06-26T07:17:20.080Z,83.88
2019-06-26T07:18:07.176Z,82.07
2019-06-26T07:19:07.178Z,80.52
2019-06-26T07:20:07.073Z,79.64
2019-06-26T07:21:07.078Z,79.84
2019-06-26T07:22:07.494Z,79.20
2019-06-26T07:23:06.888Z,79.10
2019-06-26T07:24:06.784Z,78.33
2019-06-26T07:25:06.800Z,76.28
2019-06-26T07:26:06.620Z,77.20
2019-06-26T07:27:06.612Z,76.22
2019-06-26T07:28:06.520Z,77.00
2019-06-26T07:29:06.521Z,76.32
2019-06-26T07:30:06.349Z,76.12
2019-06-26T07:31:06.340Z,76.94
2019-06-26T07:32:06.213Z,80.64
2019-06-26T07:33:06.245Z,79.76
2019-06-26T07:34:06.077Z,77.04
2019-06-26T07:35:06.079Z,76.88
2019-06-26T07:36:05.948Z,76.59
2019-06-26T07:37:05.971Z,76.40
2019-06-26T07:38:05.807Z,77.86
2019-06-26T07:39:05.772Z,77.89
2019-06-26T07:40:05.672Z,77.60
2019-06-26T07:41:05.692Z,76.92
2019-06-26T07:42:05.556Z,76.24
2019-06-26T07:43:05.498Z,76.18
2019-06-26T07:44:05.457Z,77.54
2019-06-26T07:45:05.397Z,78.13
2019-06-26T07:46:05.264Z,77.64
2019-06-26T07:47:18.390Z,74.91
2019-06-26T07:48:05.131Z,74.27
2019-06-26T07:49:05.177Z,73.97
2019-06-26T07:50:04.999Z,74.66
2019-06-26T07:51:05.063Z,73.88
2019-06-26T07:52:04.874Z,73.23
2019-06-26T07:53:04.845Z,73.03
2019-06-26T07:54:04.730Z,71.47
2019-06-26T07:55:04.757Z,71.18
2019-06-26T07:56:04.614Z,70.98
2019-06-26T07:57:04.589Z,71.08
2019-06-26T07:58:04.591Z,70.11
2019-06-26T07:59:04.485Z,69.85
2019-06-26T08:00:04.334Z,69.85
2019-06-26T08:01:04.286Z,69.65
2019-06-26T08:02:04.200Z,69.46
2019-06-26T08:03:04.715Z,69.46
2019-06-26T08:04:04.074Z,70.37
2019-06-26T08:05:04.108Z,69.49
2019-06-26T08:06:03.934Z,69.49
2019-06-26T08:07:03.925Z,68.91
2019-06-26T08:08:03.803Z,69.43
2019-06-26T08:09:03.830Z,70.12
2019-06-26T08:10:03.682Z,68.85
2019-06-26T08:11:06.425Z,67.97
2019-06-26T08:12:03.543Z,67.68
2019-06-26T08:13:03.573Z,67.87
2019-06-26T08:14:03.469Z,68.16
2019-06-26T08:15:03.465Z,66.83
2019-06-26T08:16:03.285Z,66.73
2019-06-26T08:17:03.272Z,67.02
2019-06-26T08:18:03.147Z,66.14
2019-06-26T08:19:03.183Z,65.75
2019-06-26T08:20:03.028Z,65.78
2019-06-26T08:21:12.069Z,65.39
2019-06-26T08:22:02.887Z,64.71
2019-06-26T08:23:02.960Z,65.88
2019-06-26T08:24:02.796Z,65.69
2019-06-26T08:25:02.822Z,66.11
2019-06-26T08:26:02.632Z,65.69
2019-06-26T08:27:02.699Z,66.37
2019-06-26T08:28:02.497Z,67.38
2019-06-26T08:29:02.548Z,66.89
2019-06-26T08:30:02.368Z,67.58
2019-06-26T08:31:02.350Z,66.69
2019-06-26T08:32:02.245Z,66.69
2019-06-26T08:33:02.308Z,68.00
2019-06-26T08:34:02.113Z,67.22
2019-06-26T08:35:02.201Z,66.83
2019-06-26T08:36:01.988Z,64.22
2019-06-26T08:37:01.974Z,64.12
2019-06-26T08:38:10.244Z,64.31
2019-06-26T08:39:01.793Z,63.92
2019-06-26T08:40:01.791Z,63.14
2019-06-26T08:41:01.664Z,63.34
2019-06-26T08:42:01.701Z,62.45
2019-06-26T08:43:01.538Z,63.46
2019-06-26T08:44:01.514Z,62.19
2019-06-26T08:45:01.420Z,62.48
2019-06-26T08:46:01.486Z,63.07
2019-06-26T08:47:01.299Z,62.38
2019-06-26T08:48:16.731Z,64.73
2019-06-26T08:49:01.156Z,61.60
2019-06-26T08:50:01.149Z,61.11
2019-06-26T08:51:01.055Z,60.13
2019-06-26T08:52:01.060Z,62.06
2019-06-26T08:53:00.905Z,63.76
2019-06-26T08:54:04.576Z,60.42
2019-06-26T08:55:00.771Z,60.72
2019-06-26T08:56:00.778Z,59.55
2019-06-26T08:57:00.651Z,57.86
2019-06-26T08:58:00.688Z,60.00
2019-06-26T08:59:00.531Z,61.28
2019-06-26T09:00:00.503Z,60.00
2019-06-26T09:01:00.396Z,60.21
2019-06-26T09:02:00.471Z,58.93
2019-06-26T09:03:00.272Z,58.73
2019-06-26T09:04:00.319Z,59.45
2019-06-26T09:05:00.157Z,59.45
2019-06-26T09:06:00.129Z,61.11
2019-06-26T09:07:00.020Z,60.65
2019-06-26T09:08:00.067Z,59.28
2019-06-26T09:08:59.893Z,58.30
2019-06-26T09:09:59.846Z,58.30
2019-06-26T09:10:59.762Z,57.91
2019-06-26T09:11:59.863Z,58.59
2019-06-26T09:12:59.638Z,59.08
2019-06-26T09:13:59.672Z,58.59
2019-06-26T09:14:59.519Z,59.48
2019-06-26T09:15:59.480Z,58.04
2019-06-26T09:16:59.386Z,56.76
2019-06-26T09:17:59.495Z,55.00
2019-06-26T09:18:59.261Z,54.33
2019-06-26T09:19:59.308Z,53.94
2019-06-26T09:20:59.155Z,53.28
2019-06-26T09:21:59.219Z,53.58
2019-06-26T09:22:59.020Z,53.97
2019-06-26T09:23:59.127Z,53.28
2019-06-26T09:24:58.887Z,54.27
2019-06-26T09:25:58.936Z,53.80
2019-06-26T09:26:58.762Z,51.74
2019-06-26T09:27:58.847Z,80.90
2019-06-26T09:28:58.643Z,83.47
2019-06-26T09:29:58.760Z,73.65
2019-06-26T09:30:58.518Z,86.49
2019-06-26T09:31:58.566Z,85.53
2019-06-26T09:32:58.391Z,89.34
2019-06-26T09:33:58.487Z,78.03
2019-06-26T09:34:58.265Z,79.16
2019-06-26T09:35:58.289Z,83.70
2019-06-26T09:36:58.148Z,76.54
2019-06-26T09:37:58.199Z,84.64
2019-06-26T09:38:58.156Z,85.32
2019-06-26T09:39:58.109Z,72.55
2019-06-26T09:40:57.892Z,85.22
2019-06-26T09:41:57.918Z,80.49
2019-06-26T09:42:57.767Z,84.09
2019-06-26T09:43:57.831Z,83.51
2019-06-26T09:44:57.684Z,76.78
2019-06-26T09:45:57.743Z,73.99
2019-06-26T09:46:57.532Z,75.12
2019-06-26T09:47:57.553Z,72.00
2019-06-26T09:48:57.409Z,72.23
2019-06-26T09:49:57.469Z,72.81
2019-06-26T09:50:57.270Z,73.34
2019-06-26T09:51:57.381Z,68.46
2019-06-26T09:52:57.144Z,70.54
2019-06-26T09:53:57.183Z,67.54
2019-06-26T09:54:57.093Z,67.93
2019-06-26T09:55:57.096Z,69.53
2019-06-26T09:56:56.914Z,70.84
2019-06-26T09:57:57.008Z,69.11
2019-06-26T09:58:56.766Z,68.43
2019-06-26T09:59:56.816Z,65.20
2019-06-26T10:00:56.645Z,67.77
2019-06-26T10:01:56.726Z,61.90
2019-06-26T10:02:56.525Z,57.68
2019-06-26T10:03:56.639Z,60.06
2019-06-26T10:04:56.402Z,62.12
2019-06-26T10:05:56.448Z,63.49
2019-06-26T10:06:56.276Z,61.47
2019-06-26T10:07:56.361Z,60.78
2019-06-26T10:08:56.154Z,58.62
2019-06-26T10:09:56.167Z,59.21
2019-06-26T10:10:56.027Z,60.39
2019-06-26T10:11:56.183Z,59.11
2019-06-26T10:12:55.906Z,59.73
2019-06-26T10:13:55.992Z,57.87
2019-06-26T10:14:55.781Z,59.86
2019-06-26T10:15:55.800Z,61.23
2019-06-26T10:16:55.657Z,59.66
2019-06-26T10:17:55.716Z,54.29
2019-06-26T10:19:09.620Z,54.88
2019-06-26T10:19:55.477Z,56.06
2019-06-26T10:20:55.528Z,55.37
2019-06-26T10:21:55.355Z,56.38
2019-06-26T10:22:55.442Z,56.18
2019-06-26T10:23:55.230Z,55.18
2019-06-26T10:24:55.355Z,54.78
2019-06-26T10:25:55.122Z,55.08
2019-06-26T10:26:55.164Z,53.92
2019-06-26T10:27:54.984Z,53.92
2019-06-26T10:28:55.071Z,56.90
2019-06-26T10:29:54.897Z,55.23
2019-06-26T10:30:54.987Z,51.00
2019-06-26T10:31:54.780Z,51.89
2019-06-26T10:32:54.793Z,50.21
2019-06-26T10:33:54.620Z,51.12
2019-06-26T10:34:54.763Z,49.23
2019-06-26T10:35:54.492Z,52.80
2019-06-26T10:36:54.620Z,51.81
2019-06-26T10:37:54.370Z,52.48
2019-06-26T10:38:54.424Z,50.61
2019-06-26T10:39:54.248Z,51.30
2019-06-26T10:40:54.234Z,51.89
2019-06-26T10:41:55.170Z,51.59
2019-06-26T10:42:54.141Z,49.04
2019-06-26T10:43:54.005Z,50.02
2019-06-26T10:44:54.059Z,50.83
2019-06-26T10:45:53.879Z,50.83
2019-06-26T10:46:53.894Z,53.88
2019-06-26T10:47:53.763Z,53.39
2019-06-26T10:48:53.860Z,50.93
2019-06-26T10:49:53.635Z,48.69
2019-06-26T10:50:58.571Z,49.48
2019-06-26T10:51:53.514Z,47.69
2019-06-26T10:52:53.497Z,49.55
2019-06-26T10:53:53.391Z,49.97
2019-06-26T10:54:53.508Z,51.22
2019-06-26T10:55:53.272Z,52.72
2019-06-26T10:56:53.321Z,47.02
2019-06-26T10:57:53.149Z,47.88
2019-06-26T10:58:53.233Z,51.45
2019-06-26T10:59:55.674Z,48.30
2019-06-26T11:00:53.042Z,48.00
2019-06-26T11:01:52.911Z,49.48
2019-06-26T11:02:52.951Z,48.39
2019-06-26T11:03:52.786Z,48.99
2019-06-26T11:04:52.761Z,51.07
2019-06-26T11:05:52.658Z,52.85
2019-06-26T11:06:52.775Z,47.14
2019-06-26T11:07:52.538Z,48.61
2019-06-26T11:08:52.584Z,47.63
2019-06-26T11:09:52.417Z,46.84
2019-06-26T11:10:52.497Z,47.53
2019-06-26T11:11:52.301Z,48.13
2019-06-26T11:12:52.410Z,47.73
2019-06-26T11:13:52.174Z,46.47
2019-06-26T11:14:52.215Z,45.78
2019-06-26T11:15:52.056Z,46.35
2019-06-26T11:16:52.139Z,48.25
2019-06-26T11:17:51.931Z,46.87
2019-06-26T11:18:51.975Z,45.19
2019-06-26T11:19:55.178Z,44.09
2019-06-26T11:20:51.951Z,47.04
2019-06-26T11:21:51.691Z,49.01
2019-06-26T11:22:51.790Z,50.81
2019-06-26T11:23:51.566Z,50.81
2019-06-26T11:24:51.669Z,49.73
2019-06-26T11:25:51.452Z,50.83
2019-06-26T11:26:51.584Z,48.27
2019-06-26T11:27:51.328Z,45.51
2019-06-26T11:28:51.390Z,46.30
2019-06-26T11:29:51.213Z,43.74
2019-06-26T11:30:51.302Z,43.74
2019-06-26T11:31:51.092Z,44.13
2019-06-26T11:32:51.220Z,42.65
2019-06-26T11:33:51.021Z,44.23
2019-06-26T11:34:51.022Z,42.65
2019-06-26T11:35:50.843Z,46.40
2019-06-26T11:37:03.136Z,44.74
2019-06-26T11:37:50.721Z,43.76
2019-06-26T11:38:50.853Z,45.41
2019-06-26T11:39:50.605Z,44.53
2019-06-26T11:40:50.689Z,46.89
2019-06-26T11:41:50.482Z,44.62
2019-06-26T11:42:50.566Z,42.97
2019-06-26T11:43:50.362Z,44.55
2019-06-26T11:44:50.479Z,45.83
2019-06-26T11:45:50.266Z,47.01
2019-06-26T11:46:50.296Z,46.72
2019-06-26T11:47:50.124Z,45.34
2019-06-26T11:48:50.198Z,45.24
2019-06-26T11:49:59.511Z,43.86
2019-06-26T11:50:49.944Z,46.81
2019-06-26T11:51:50.039Z,45.63
2019-06-26T11:52:49.822Z,43.93
2019-06-26T11:53:49.934Z,44.65
2019-06-26T11:55:02.240Z,44.74
2019-06-26T11:55:49.836Z,46.52
2019-06-26T11:56:49.583Z,45.24
2019-06-26T11:57:49.654Z,43.96
2019-06-26T11:58:49.461Z,43.76
2019-06-26T11:59:49.632Z,41.20
2019-06-26T12:00:49.340Z,42.85
2019-06-26T12:01:49.475Z,43.74
2019-06-26T12:02:49.224Z,41.17
2019-06-26T12:03:49.274Z,41.27
2019-06-26T12:04:49.112Z,43.15
2019-06-26T12:05:49.206Z,43.24
2019-06-26T12:06:48.982Z,41.49
2019-06-26T12:07:49.099Z,44.15
2019-06-26T12:08:48.864Z,45.73
2019-06-26T12:09:48.961Z,43.96
2019-06-26T12:10:48.736Z,40.11
2019-06-26T12:11:48.821Z,40.61
2019-06-26T12:12:48.619Z,43.96
2019-06-26T12:13:48.825Z,44.15
2019-06-26T12:14:48.501Z,44.45
2019-06-26T12:15:48.650Z,48.41
2019-06-26T12:16:48.385Z,47.03
2019-06-26T12:17:48.459Z,45.56
2019-06-26T12:18:48.266Z,46.86
2019-06-26T12:19:48.368Z,45.57
2019-06-26T12:20:48.158Z,46.26
2019-06-26T12:21:48.284Z,45.87
2019-06-26T12:22:48.020Z,46.26
2019-06-26T12:23:48.085Z,45.48
2019-06-26T12:24:47.901Z,45.48
2019-06-26T12:25:47.998Z,43.51
2019-06-26T12:26:47.780Z,44.37
2019-06-26T12:27:47.807Z,46.76
2019-06-26T12:28:47.666Z,46.47
2019-06-26T12:29:47.726Z,47.45
2019-06-26T12:30:47.546Z,47.16
2019-06-26T12:31:47.629Z,45.38
2019-06-26T12:33:02.266Z,43.80
2019-06-26T12:33:47.364Z,44.29
2019-06-26T12:34:47.449Z,44.89
2019-06-26T12:35:47.245Z,44.79
2019-06-26T12:36:47.357Z,44.29
2019-06-26T12:37:47.128Z,44.12
2019-06-26T12:38:47.267Z,42.93
2019-06-26T12:39:47.007Z,45.70
2019-06-26T12:40:47.077Z,44.61
2019-06-26T12:41:46.885Z,44.91
2019-06-26T12:42:46.987Z,45.60
2019-06-26T12:43:46.770Z,45.01
2019-06-26T12:44:46.898Z,45.70
2019-06-26T12:45:46.647Z,46.39
2019-06-26T12:46:46.714Z,46.29
2019-06-26T12:47:46.526Z,43.43
2019-06-26T12:48:46.619Z,41.95
2019-06-26T12:49:46.409Z,40.07
2019-06-26T12:50:46.429Z,41.16
2019-06-26T12:51:46.290Z,42.34